sensor_id;sensor_type;location;lat;lon;timestamp;P1;durP1;ratioP1;P2;durP2;ratioP2
30299;SDS011;17110;52.602;12.998;2023-05-15T00:01:07;13.45;;;11.77;;
30299;SDS011;17110;52.602;12.998;2023-05-15T00:03:34;11.90;;;10.90;;
30299;SDS011;17110;52.602;12.998;2023-05-15T00:06:00;13.50;;;12.05;;
30299;SDS011;17110;52.602;12.998;2023-05-15T00:08:26;13.77;;;12.02;;
30299;SDS011;17110;52.602;12.998;2023-05-15T00:10:51;12.30;;;11.20;;
30299;SDS011;17110;52.602;12.998;2023-05-15T00:13:17;12.10;;;11.10;;
30299;SDS011;17110;52.602;12.998;2023-05-15T00:15:43;12.77;;;11.68;;
30299;SDS011;17110;52.602;12.998;2023-05-15T00:18:08;12.48;;;11.07;;
30299;SDS011;17110;52.602;12.998;2023-05-15T00:20:35;13.02;;;11.77;;
30299;SDS011;17110;52.602;12.998;2023-05-15T00:23:01;13.43;;;12.20;;
30299;SDS011;17110;52.602;12.998;2023-05-15T00:25:26;13.07;;;11.60;;
30299;SDS011;17110;52.602;12.998;2023-05-15T00:27:52;13.75;;;12.35;;
30299;SDS011;17110;52.602;12.998;2023-05-15T00:30:18;13.60;;;12.38;;
30299;SDS011;17110;52.602;12.998;2023-05-15T00:32:44;13.48;;;12.07;;
30299;SDS011;17110;52.602;12.998;2023-05-15T00:35:09;13.45;;;12.05;;
30299;SDS011;17110;52.602;12.998;2023-05-15T00:37:36;13.70;;;12.43;;
30299;SDS011;17110;52.602;12.998;2023-05-15T00:40:02;16.95;;;13.90;;
30299;SDS011;17110;52.602;12.998;2023-05-15T00:42:28;13.23;;;12.07;;
30299;SDS011;17110;52.602;12.998;2023-05-15T00:44:55;14.10;;;12.80;;
30299;SDS011;17110;52.602;12.998;2023-05-15T00:47:22;11.90;;;10.80;;
30299;SDS011;17110;52.602;12.998;2023-05-15T00:49:50;12.13;;;11.02;;
30299;SDS011;17110;52.602;12.998;2023-05-15T00:52:17;11.95;;;10.75;;
30299;SDS011;17110;52.602;12.998;2023-05-15T00:54:46;12.02;;;11.00;;
30299;SDS011;17110;52.602;12.998;2023-05-15T00:57:11;12.77;;;11.57;;
30299;SDS011;17110;52.602;12.998;2023-05-15T00:59:38;13.00;;;11.75;;
30299;SDS011;17110;52.602;12.998;2023-05-15T01:02:03;13.55;;;12.45;;
30299;SDS011;17110;52.602;12.998;2023-05-15T01:04:29;12.98;;;11.85;;
30299;SDS011;17110;52.602;12.998;2023-05-15T01:06:55;13.32;;;12.13;;
30299;SDS011;17110;52.602;12.998;2023-05-15T01:09:22;12.80;;;11.70;;
30299;SDS011;17110;52.602;12.998;2023-05-15T01:11:52;11.45;;;10.35;;
30299;SDS011;17110;52.602;12.998;2023-05-15T01:14:19;11.93;;;10.70;;
30299;SDS011;17110;52.602;12.998;2023-05-15T01:16:44;11.27;;;10.38;;
30299;SDS011;17110;52.602;12.998;2023-05-15T01:19:10;11.77;;;10.70;;
30299;SDS011;17110;52.602;12.998;2023-05-15T01:21:45;11.60;;;10.50;;
30299;SDS011;17110;52.602;12.998;2023-05-15T01:24:32;11.40;;;10.32;;
30299;SDS011;17110;52.602;12.998;2023-05-15T01:27:11;11.75;;;10.75;;
30299;SDS011;17110;52.602;12.998;2023-05-15T01:29:43;11.05;;;10.15;;
30299;SDS011;17110;52.602;12.998;2023-05-15T01:32:23;11.98;;;10.75;;
30299;SDS011;17110;52.602;12.998;2023-05-15T01:34:56;11.77;;;10.88;;
30299;SDS011;17110;52.602;12.998;2023-05-15T01:37:27;11.65;;;10.60;;
30299;SDS011;17110;52.602;12.998;2023-05-15T01:39:57;11.52;;;10.63;;
30299;SDS011;17110;52.602;12.998;2023-05-15T01:42:29;11.98;;;10.98;;
30299;SDS011;17110;52.602;12.998;2023-05-15T01:44:58;11.27;;;10.15;;
30299;SDS011;17110;52.602;12.998;2023-05-15T01:47:29;11.32;;;10.50;;
30299;SDS011;17110;52.602;12.998;2023-05-15T01:49:59;10.57;;;9.77;;
30299;SDS011;17110;52.602;12.998;2023-05-15T01:52:29;11.55;;;10.63;;
30299;SDS011;17110;52.602;12.998;2023-05-15T01:54:58;11.63;;;10.60;;
30299;SDS011;17110;52.602;12.998;2023-05-15T01:57:25;12.32;;;11.32;;
30299;SDS011;17110;52.602;12.998;2023-05-15T01:59:54;11.95;;;10.95;;
30299;SDS011;17110;52.602;12.998;2023-05-15T02:02:22;10.93;;;10.13;;
30299;SDS011;17110;52.602;12.998;2023-05-15T02:04:48;12.20;;;11.10;;
30299;SDS011;17110;52.602;12.998;2023-05-15T02:07:15;12.05;;;10.93;;
30299;SDS011;17110;52.602;12.998;2023-05-15T02:09:42;11.90;;;11.00;;
30299;SDS011;17110;52.602;12.998;2023-05-15T02:12:08;12.85;;;10.70;;
30299;SDS011;17110;52.602;12.998;2023-05-15T02:14:36;11.68;;;10.35;;
30299;SDS011;17110;52.602;12.998;2023-05-15T02:17:04;14.48;;;13.18;;
30299;SDS011;17110;52.602;12.998;2023-05-15T02:19:31;13.80;;;11.80;;
30299;SDS011;17110;52.602;12.998;2023-05-15T02:21:57;16.48;;;12.05;;
30299;SDS011;17110;52.602;12.998;2023-05-15T02:24:23;13.48;;;11.13;;
30299;SDS011;17110;52.602;12.998;2023-05-15T02:26:50;16.33;;;12.82;;
30299;SDS011;17110;52.602;12.998;2023-05-15T02:29:21;13.85;;;12.52;;
30299;SDS011;17110;52.602;12.998;2023-05-15T02:31:58;12.82;;;11.63;;
30299;SDS011;17110;52.602;12.998;2023-05-15T02:34:34;12.45;;;11.27;;
30299;SDS011;17110;52.602;12.998;2023-05-15T02:37:08;14.35;;;11.93;;
30299;SDS011;17110;52.602;12.998;2023-05-15T02:39:37;13.63;;;12.40;;
30299;SDS011;17110;52.602;12.998;2023-05-15T02:42:04;13.18;;;12.07;;
30299;SDS011;17110;52.602;12.998;2023-05-15T02:44:31;13.40;;;12.38;;
30299;SDS011;17110;52.602;12.998;2023-05-15T02:47:01;12.75;;;11.43;;
30299;SDS011;17110;52.602;12.998;2023-05-15T02:49:27;12.45;;;11.43;;
30299;SDS011;17110;52.602;12.998;2023-05-15T02:51:53;13.63;;;12.25;;
30299;SDS011;17110;52.602;12.998;2023-05-15T02:54:18;13.77;;;12.23;;
30299;SDS011;17110;52.602;12.998;2023-05-15T02:56:44;13.88;;;12.60;;
30299;SDS011;17110;52.602;12.998;2023-05-15T02:59:10;13.32;;;12.20;;
30299;SDS011;17110;52.602;12.998;2023-05-15T03:01:36;13.25;;;12.10;;
30299;SDS011;17110;52.602;12.998;2023-05-15T03:04:03;14.02;;;12.80;;
30299;SDS011;17110;52.602;12.998;2023-05-15T03:06:29;17.40;;;12.73;;
30299;SDS011;17110;52.602;12.998;2023-05-15T03:08:54;27.65;;;13.88;;
30299;SDS011;17110;52.602;12.998;2023-05-15T03:11:20;22.73;;;14.23;;
30299;SDS011;17110;52.602;12.998;2023-05-15T03:13:46;14.07;;;12.55;;
30299;SDS011;17110;52.602;12.998;2023-05-15T03:16:11;12.60;;;11.52;;
30299;SDS011;17110;52.602;12.998;2023-05-15T03:18:37;13.20;;;12.13;;
30299;SDS011;17110;52.602;12.998;2023-05-15T03:21:04;12.57;;;11.48;;
30299;SDS011;17110;52.602;12.998;2023-05-15T03:23:30;13.00;;;12.00;;
30299;SDS011;17110;52.602;12.998;2023-05-15T03:25:55;17.83;;;12.63;;
30299;SDS011;17110;52.602;12.998;2023-05-15T03:28:21;14.70;;;12.57;;
30299;SDS011;17110;52.602;12.998;2023-05-15T03:30:47;12.57;;;11.57;;
30299;SDS011;17110;52.602;12.998;2023-05-15T03:33:12;13.40;;;11.90;;
30299;SDS011;17110;52.602;12.998;2023-05-15T03:35:38;23.02;;;12.48;;
30299;SDS011;17110;52.602;12.998;2023-05-15T03:38:05;31.33;;;13.60;;
30299;SDS011;17110;52.602;12.998;2023-05-15T03:40:30;20.02;;;12.60;;
30299;SDS011;17110;52.602;12.998;2023-05-15T03:42:56;20.13;;;12.13;;
30299;SDS011;17110;52.602;12.998;2023-05-15T03:45:22;23.55;;;13.68;;
30299;SDS011;17110;52.602;12.998;2023-05-15T03:47:47;25.00;;;13.07;;
30299;SDS011;17110;52.602;12.998;2023-05-15T03:50:13;26.60;;;14.43;;
30299;SDS011;17110;52.602;12.998;2023-05-15T03:52:39;21.05;;;13.32;;
30299;SDS011;17110;52.602;12.998;2023-05-15T03:55:07;19.65;;;12.10;;
30299;SDS011;17110;52.602;12.998;2023-05-15T03:57:32;13.20;;;11.95;;
30299;SDS011;17110;52.602;12.998;2023-05-15T03:59:58;13.32;;;12.15;;
30299;SDS011;17110;52.602;12.998;2023-05-15T04:02:24;12.60;;;11.48;;
30299;SDS011;17110;52.602;12.998;2023-05-15T04:04:49;13.20;;;11.90;;
30299;SDS011;17110;52.602;12.998;2023-05-15T04:07:16;12.25;;;11.10;;
30299;SDS011;17110;52.602;12.998;2023-05-15T04:09:42;13.10;;;12.00;;
30299;SDS011;17110;52.602;12.998;2023-05-15T04:12:09;12.25;;;11.15;;
30299;SDS011;17110;52.602;12.998;2023-05-15T04:14:34;12.10;;;11.10;;
30299;SDS011;17110;52.602;12.998;2023-05-15T04:17:00;12.18;;;11.07;;
30299;SDS011;17110;52.602;12.998;2023-05-15T04:19:26;12.15;;;11.23;;
30299;SDS011;17110;52.602;12.998;2023-05-15T04:21:51;12.65;;;11.55;;
30299;SDS011;17110;52.602;12.998;2023-05-15T04:24:17;11.40;;;10.40;;
30299;SDS011;17110;52.602;12.998;2023-05-15T04:26:42;10.80;;;9.93;;
30299;SDS011;17110;52.602;12.998;2023-05-15T04:29:09;12.70;;;11.70;;
30299;SDS011;17110;52.602;12.998;2023-05-15T04:31:35;12.05;;;10.82;;
30299;SDS011;17110;52.602;12.998;2023-05-15T04:34:01;11.25;;;9.98;;
30299;SDS011;17110;52.602;12.998;2023-05-15T04:36:26;11.20;;;10.20;;
30299;SDS011;17110;52.602;12.998;2023-05-15T04:38:52;12.02;;;10.85;;
30299;SDS011;17110;52.602;12.998;2023-05-15T04:41:17;10.63;;;9.73;;
30299;SDS011;17110;52.602;12.998;2023-05-15T04:43:43;11.40;;;10.40;;
30299;SDS011;17110;52.602;12.998;2023-05-15T04:46:10;10.23;;;9.32;;
30299;SDS011;17110;52.602;12.998;2023-05-15T04:48:36;11.30;;;10.25;;
30299;SDS011;17110;52.602;12.998;2023-05-15T04:51:01;10.50;;;9.48;;
30299;SDS011;17110;52.602;12.998;2023-05-15T04:53:27;9.60;;;8.80;;
30299;SDS011;17110;52.602;12.998;2023-05-15T04:55:52;10.13;;;9.32;;
30299;SDS011;17110;52.602;12.998;2023-05-15T04:58:18;9.18;;;8.10;;
30299;SDS011;17110;52.602;12.998;2023-05-15T05:00:44;8.52;;;7.70;;
30299;SDS011;17110;52.602;12.998;2023-05-15T05:03:10;9.80;;;7.80;;
30299;SDS011;17110;52.602;12.998;2023-05-15T05:05:36;8.35;;;7.50;;
30299;SDS011;17110;52.602;12.998;2023-05-15T05:08:02;146.38;;;18.27;;
30299;SDS011;17110;52.602;12.998;2023-05-15T05:10:27;56.42;;;11.90;;
30299;SDS011;17110;52.602;12.998;2023-05-15T05:12:53;13.75;;;7.82;;
30299;SDS011;17110;52.602;12.998;2023-05-15T05:15:19;10.02;;;7.32;;
30299;SDS011;17110;52.602;12.998;2023-05-15T05:17:45;9.15;;;7.55;;
30299;SDS011;17110;52.602;12.998;2023-05-15T05:20:12;19.58;;;8.23;;
30299;SDS011;17110;52.602;12.998;2023-05-15T05:22:37;16.35;;;8.30;;
30299;SDS011;17110;52.602;12.998;2023-05-15T05:25:03;42.75;;;10.60;;
30299;SDS011;17110;52.602;12.998;2023-05-15T05:27:30;34.33;;;9.57;;
30299;SDS011;17110;52.602;12.998;2023-05-15T05:29:55;15.45;;;7.72;;
30299;SDS011;17110;52.602;12.998;2023-05-15T05:32:21;12.50;;;6.93;;
30299;SDS011;17110;52.602;12.998;2023-05-15T05:34:47;12.00;;;7.30;;
30299;SDS011;17110;52.602;12.998;2023-05-15T05:37:14;33.92;;;8.75;;
30299;SDS011;17110;52.602;12.998;2023-05-15T05:39:39;17.75;;;7.45;;
30299;SDS011;17110;52.602;12.998;2023-05-15T05:42:05;8.60;;;6.10;;
30299;SDS011;17110;52.602;12.998;2023-05-15T05:44:30;26.02;;;7.65;;
30299;SDS011;17110;52.602;12.998;2023-05-15T05:46:56;8.25;;;6.30;;
30299;SDS011;17110;52.602;12.998;2023-05-15T05:49:22;43.00;;;9.63;;
30299;SDS011;17110;52.602;12.998;2023-05-15T05:51:47;11.98;;;6.82;;
30299;SDS011;17110;52.602;12.998;2023-05-15T05:54:14;26.15;;;7.85;;
30299;SDS011;17110;52.602;12.998;2023-05-15T05:56:40;38.25;;;8.23;;
30299;SDS011;17110;52.602;12.998;2023-05-15T05:59:07;11.10;;;5.47;;
30299;SDS011;17110;52.602;12.998;2023-05-15T06:01:32;6.80;;;5.85;;
30299;SDS011;17110;52.602;12.998;2023-05-15T06:03:58;8.63;;;6.18;;
30299;SDS011;17110;52.602;12.998;2023-05-15T06:06:24;6.90;;;6.20;;
30299;SDS011;17110;52.602;12.998;2023-05-15T06:08:49;9.20;;;6.50;;
30299;SDS011;17110;52.602;12.998;2023-05-15T06:11:16;6.72;;;5.97;;
30299;SDS011;17110;52.602;12.998;2023-05-15T06:13:42;12.32;;;6.97;;
30299;SDS011;17110;52.602;12.998;2023-05-15T06:16:07;6.82;;;5.72;;
30299;SDS011;17110;52.602;12.998;2023-05-15T06:18:33;6.65;;;6.05;;
30299;SDS011;17110;52.602;12.998;2023-05-15T06:20:59;7.65;;;6.15;;
30299;SDS011;17110;52.602;12.998;2023-05-15T06:23:24;11.63;;;6.47;;
30299;SDS011;17110;52.602;12.998;2023-05-15T06:25:50;7.90;;;6.10;;
30299;SDS011;17110;52.602;12.998;2023-05-15T06:28:17;8.23;;;6.32;;
30299;SDS011;17110;52.602;12.998;2023-05-15T06:30:43;7.18;;;6.10;;
30299;SDS011;17110;52.602;12.998;2023-05-15T06:33:08;36.53;;;8.77;;
30299;SDS011;17110;52.602;12.998;2023-05-15T06:35:34;30.20;;;7.13;;
30299;SDS011;17110;52.602;12.998;2023-05-15T06:38:00;32.83;;;7.38;;
30299;SDS011;17110;52.602;12.998;2023-05-15T06:40:25;156.45;;;17.83;;
30299;SDS011;17110;52.602;12.998;2023-05-15T06:42:51;16.15;;;6.05;;
30299;SDS011;17110;52.602;12.998;2023-05-15T06:45:18;9.48;;;5.80;;
30299;SDS011;17110;52.602;12.998;2023-05-15T06:47:44;7.60;;;5.40;;
30299;SDS011;17110;52.602;12.998;2023-05-15T06:50:09;5.93;;;5.35;;
30299;SDS011;17110;52.602;12.998;2023-05-15T06:52:35;6.45;;;5.03;;
30299;SDS011;17110;52.602;12.998;2023-05-15T06:55:00;5.90;;;5.38;;
30299;SDS011;17110;52.602;12.998;2023-05-15T06:57:26;7.50;;;5.10;;
30299;SDS011;17110;52.602;12.998;2023-05-15T06:59:52;7.00;;;5.65;;
30299;SDS011;17110;52.602;12.998;2023-05-15T07:02:19;5.93;;;4.65;;
30299;SDS011;17110;52.602;12.998;2023-05-15T07:04:44;8.63;;;4.80;;
30299;SDS011;17110;52.602;12.998;2023-05-15T07:07:10;5.53;;;5.00;;
30299;SDS011;17110;52.602;12.998;2023-05-15T07:09:36;6.72;;;5.00;;
30299;SDS011;17110;52.602;12.998;2023-05-15T07:12:01;6.85;;;5.38;;
30299;SDS011;17110;52.602;12.998;2023-05-15T07:14:27;5.57;;;5.07;;
30299;SDS011;17110;52.602;12.998;2023-05-15T07:16:53;5.38;;;4.78;;
30299;SDS011;17110;52.602;12.998;2023-05-15T07:19:20;5.55;;;5.05;;
30299;SDS011;17110;52.602;12.998;2023-05-15T07:21:45;125.78;;;16.38;;
30299;SDS011;17110;52.602;12.998;2023-05-15T07:24:11;8.50;;;4.60;;
30299;SDS011;17110;52.602;12.998;2023-05-15T07:26:37;6.38;;;4.90;;
30299;SDS011;17110;52.602;12.998;2023-05-15T07:29:02;6.35;;;4.97;;
30299;SDS011;17110;52.602;12.998;2023-05-15T07:31:28;8.23;;;4.50;;
30299;SDS011;17110;52.602;12.998;2023-05-15T07:33:54;7.60;;;5.07;;
30299;SDS011;17110;52.602;12.998;2023-05-15T07:36:21;6.57;;;4.70;;
30299;SDS011;17110;52.602;12.998;2023-05-15T07:38:46;5.97;;;4.97;;
30299;SDS011;17110;52.602;12.998;2023-05-15T07:41:12;7.15;;;4.80;;
30299;SDS011;17110;52.602;12.998;2023-05-15T07:43:37;5.38;;;4.43;;
30299;SDS011;17110;52.602;12.998;2023-05-15T07:46:03;4.65;;;4.25;;
30299;SDS011;17110;52.602;12.998;2023-05-15T07:48:29;5.30;;;4.22;;
30299;SDS011;17110;52.602;12.998;2023-05-15T07:50:54;6.13;;;4.47;;
30299;SDS011;17110;52.602;12.998;2023-05-15T07:53:21;5.13;;;4.35;;
30299;SDS011;17110;52.602;12.998;2023-05-15T07:55:47;5.18;;;4.60;;
30299;SDS011;17110;52.602;12.998;2023-05-15T07:58:13;5.43;;;4.25;;
30299;SDS011;17110;52.602;12.998;2023-05-15T08:00:38;5.72;;;4.70;;
30299;SDS011;17110;52.602;12.998;2023-05-15T08:03:04;5.95;;;4.88;;
30299;SDS011;17110;52.602;12.998;2023-05-15T08:05:30;4.70;;;4.30;;
30299;SDS011;17110;52.602;12.998;2023-05-15T08:07:56;4.93;;;4.43;;
30299;SDS011;17110;52.602;12.998;2023-05-15T08:10:23;6.50;;;4.82;;
30299;SDS011;17110;52.602;12.998;2023-05-15T08:12:48;5.47;;;4.47;;
30299;SDS011;17110;52.602;12.998;2023-05-15T08:15:14;5.38;;;4.40;;
30299;SDS011;17110;52.602;12.998;2023-05-15T08:17:40;87.72;;;11.63;;
30299;SDS011;17110;52.602;12.998;2023-05-15T08:20:06;43.30;;;7.82;;
30299;SDS011;17110;52.602;12.998;2023-05-15T08:22:32;8.18;;;4.13;;
30299;SDS011;17110;52.602;12.998;2023-05-15T08:24:58;7.47;;;4.28;;
30299;SDS011;17110;52.602;12.998;2023-05-15T08:27:25;5.38;;;4.00;;
30299;SDS011;17110;52.602;12.998;2023-05-15T08:29:51;4.45;;;4.03;;
30299;SDS011;17110;52.602;12.998;2023-05-15T08:32:17;4.90;;;3.75;;
30299;SDS011;17110;52.602;12.998;2023-05-15T08:34:42;6.28;;;3.60;;
30299;SDS011;17110;52.602;12.998;2023-05-15T08:37:08;7.18;;;4.00;;
30299;SDS011;17110;52.602;12.998;2023-05-15T08:39:34;4.00;;;3.58;;
30299;SDS011;17110;52.602;12.998;2023-05-15T08:42:05;8.45;;;3.72;;
30299;SDS011;17110;52.602;12.998;2023-05-15T08:44:36;6.97;;;3.90;;
30299;SDS011;17110;52.602;12.998;2023-05-15T08:47:02;6.57;;;3.80;;
30299;SDS011;17110;52.602;12.998;2023-05-15T08:49:32;4.25;;;3.85;;
30299;SDS011;17110;52.602;12.998;2023-05-15T08:52:04;4.40;;;4.00;;
30299;SDS011;17110;52.602;12.998;2023-05-15T08:54:31;7.88;;;4.50;;
30299;SDS011;17110;52.602;12.998;2023-05-15T08:56:57;5.18;;;3.97;;
30299;SDS011;17110;52.602;12.998;2023-05-15T08:59:22;23.38;;;5.82;;
30299;SDS011;17110;52.602;12.998;2023-05-15T09:01:50;4.63;;;3.80;;
30299;SDS011;17110;52.602;12.998;2023-05-15T09:04:16;4.78;;;4.05;;
30299;SDS011;17110;52.602;12.998;2023-05-15T09:06:42;6.38;;;4.47;;
30299;SDS011;17110;52.602;12.998;2023-05-15T09:09:10;5.80;;;3.90;;
30299;SDS011;17110;52.602;12.998;2023-05-15T09:11:35;5.85;;;3.95;;
30299;SDS011;17110;52.602;12.998;2023-05-15T09:14:02;6.20;;;3.53;;
30299;SDS011;17110;52.602;12.998;2023-05-15T09:16:28;8.20;;;3.95;;
30299;SDS011;17110;52.602;12.998;2023-05-15T09:18:55;6.03;;;3.78;;
30299;SDS011;17110;52.602;12.998;2023-05-15T09:21:24;8.07;;;3.97;;
30299;SDS011;17110;52.602;12.998;2023-05-15T09:23:51;4.55;;;3.78;;
30299;SDS011;17110;52.602;12.998;2023-05-15T09:26:17;6.03;;;3.55;;
30299;SDS011;17110;52.602;12.998;2023-05-15T09:28:42;4.30;;;3.90;;
30299;SDS011;17110;52.602;12.998;2023-05-15T09:31:08;41.50;;;6.68;;
30299;SDS011;17110;52.602;12.998;2023-05-15T09:33:35;48.70;;;7.75;;
30299;SDS011;17110;52.602;12.998;2023-05-15T09:36:03;14.70;;;4.78;;
30299;SDS011;17110;52.602;12.998;2023-05-15T09:38:31;15.25;;;5.20;;
30299;SDS011;17110;52.602;12.998;2023-05-15T09:40:59;6.10;;;3.92;;
30299;SDS011;17110;52.602;12.998;2023-05-15T09:43:26;7.15;;;4.05;;
30299;SDS011;17110;52.602;12.998;2023-05-15T09:45:53;5.63;;;4.07;;
30299;SDS011;17110;52.602;12.998;2023-05-15T09:48:19;5.35;;;4.32;;
30299;SDS011;17110;52.602;12.998;2023-05-15T09:50:45;4.50;;;4.10;;
30299;SDS011;17110;52.602;12.998;2023-05-15T09:53:13;14.43;;;5.18;;
30299;SDS011;17110;52.602;12.998;2023-05-15T09:55:40;7.60;;;4.82;;
30299;SDS011;17110;52.602;12.998;2023-05-15T09:58:07;5.32;;;4.32;;
30299;SDS011;17110;52.602;12.998;2023-05-15T10:00:33;14.55;;;4.90;;
30299;SDS011;17110;52.602;12.998;2023-05-15T10:03:00;4.65;;;4.13;;
30299;SDS011;17110;52.602;12.998;2023-05-15T10:05:26;6.65;;;4.40;;
30299;SDS011;17110;52.602;12.998;2023-05-15T10:07:52;4.35;;;3.80;;
30299;SDS011;17110;52.602;12.998;2023-05-15T10:10:20;6.20;;;3.90;;
30299;SDS011;17110;52.602;12.998;2023-05-15T10:12:46;7.13;;;4.43;;
30299;SDS011;17110;52.602;12.998;2023-05-15T10:15:14;4.65;;;3.88;;
30299;SDS011;17110;52.602;12.998;2023-05-15T10:17:41;5.05;;;3.67;;
30299;SDS011;17110;52.602;12.998;2023-05-15T10:20:08;5.13;;;4.47;;
30299;SDS011;17110;52.602;12.998;2023-05-15T10:22:35;5.10;;;4.60;;
30299;SDS011;17110;52.602;12.998;2023-05-15T10:25:06;6.13;;;5.00;;
30299;SDS011;17110;52.602;12.998;2023-05-15T10:27:38;5.07;;;4.60;;
30299;SDS011;17110;52.602;12.998;2023-05-15T10:30:06;5.78;;;5.28;;
30299;SDS011;17110;52.602;12.998;2023-05-15T10:32:33;7.57;;;4.45;;
30299;SDS011;17110;52.602;12.998;2023-05-15T10:35:00;7.07;;;4.88;;
30299;SDS011;17110;52.602;12.998;2023-05-15T10:37:27;8.93;;;5.00;;
30299;SDS011;17110;52.602;12.998;2023-05-15T10:39:54;7.05;;;4.68;;
30299;SDS011;17110;52.602;12.998;2023-05-15T10:42:22;7.07;;;4.68;;
30299;SDS011;17110;52.602;12.998;2023-05-15T10:44:51;40.88;;;6.63;;
30299;SDS011;17110;52.602;12.998;2023-05-15T10:47:17;45.35;;;8.32;;
30299;SDS011;17110;52.602;12.998;2023-05-15T10:49:43;7.75;;;5.32;;
30299;SDS011;17110;52.602;12.998;2023-05-15T10:52:09;6.70;;;4.60;;
30299;SDS011;17110;52.602;12.998;2023-05-15T10:54:34;5.53;;;4.53;;
30299;SDS011;17110;52.602;12.998;2023-05-15T10:57:00;7.00;;;5.05;;
30299;SDS011;17110;52.602;12.998;2023-05-15T10:59:29;101.35;;;11.50;;
30299;SDS011;17110;52.602;12.998;2023-05-15T11:01:57;9.10;;;5.45;;
30299;SDS011;17110;52.602;12.998;2023-05-15T11:04:43;5.68;;;5.18;;
30299;SDS011;17110;52.602;12.998;2023-05-15T11:07:13;8.23;;;4.88;;
30299;SDS011;17110;52.602;12.998;2023-05-15T11:09:40;5.68;;;5.00;;
30299;SDS011;17110;52.602;12.998;2023-05-15T11:12:07;156.38;;;17.90;;
30299;SDS011;17110;52.602;12.998;2023-05-15T11:14:37;14.10;;;4.65;;
30299;SDS011;17110;52.602;12.998;2023-05-15T11:17:05;6.95;;;4.43;;
30299;SDS011;17110;52.602;12.998;2023-05-15T11:19:33;8.10;;;4.03;;
30299;SDS011;17110;52.602;12.998;2023-05-15T11:22:02;136.05;;;13.10;;
30299;SDS011;17110;52.602;12.998;2023-05-15T11:24:46;6.38;;;4.28;;
30299;SDS011;17110;52.602;12.998;2023-05-15T11:27:15;4.30;;;3.90;;
30299;SDS011;17110;52.602;12.998;2023-05-15T11:35:25;6.25;;;4.30;;
30299;SDS011;17110;52.602;12.998;2023-05-15T11:37:53;7.60;;;4.72;;
30299;SDS011;17110;52.602;12.998;2023-05-15T11:40:21;10.23;;;4.50;;
30299;SDS011;17110;52.602;12.998;2023-05-15T11:43:04;6.43;;;4.32;;
30299;SDS011;17110;52.602;12.998;2023-05-15T11:45:32;5.70;;;4.38;;
30299;SDS011;17110;52.602;12.998;2023-05-15T11:48:01;6.35;;;3.63;;
30299;SDS011;17110;52.602;12.998;2023-05-15T11:50:29;9.70;;;4.40;;
30299;SDS011;17110;52.602;12.998;2023-05-15T11:52:55;44.05;;;7.13;;
30299;SDS011;17110;52.602;12.998;2023-05-15T11:55:21;6.70;;;4.10;;
30299;SDS011;17110;52.602;12.998;2023-05-15T11:57:47;5.90;;;3.42;;
30299;SDS011;17110;52.602;12.998;2023-05-15T12:00:13;6.88;;;3.80;;
30299;SDS011;17110;52.602;12.998;2023-05-15T12:02:39;6.38;;;3.67;;
30299;SDS011;17110;52.602;12.998;2023-05-15T12:05:06;4.63;;;3.28;;
30299;SDS011;17110;52.602;12.998;2023-05-15T12:07:34;4.30;;;3.40;;
30299;SDS011;17110;52.602;12.998;2023-05-15T12:10:01;4.47;;;3.80;;
30299;SDS011;17110;52.602;12.998;2023-05-15T12:12:27;7.35;;;3.83;;
30299;SDS011;17110;52.602;12.998;2023-05-15T12:14:56;4.68;;;3.80;;
30299;SDS011;17110;52.602;12.998;2023-05-15T12:17:22;4.50;;;4.10;;
30299;SDS011;17110;52.602;12.998;2023-05-15T12:19:48;5.25;;;4.28;;
30299;SDS011;17110;52.602;12.998;2023-05-15T12:22:17;6.97;;;4.38;;
30299;SDS011;17110;52.602;12.998;2023-05-15T12:24:42;3.65;;;3.33;;
30299;SDS011;17110;52.602;12.998;2023-05-15T12:27:08;6.93;;;3.70;;
30299;SDS011;17110;52.602;12.998;2023-05-15T12:29:34;4.78;;;3.08;;
30299;SDS011;17110;52.602;12.998;2023-05-15T12:32:00;3.83;;;3.40;;
30299;SDS011;17110;52.602;12.998;2023-05-15T12:34:26;3.90;;;3.20;;
30299;SDS011;17110;52.602;12.998;2023-05-15T12:36:52;6.95;;;3.00;;
30299;SDS011;17110;52.602;12.998;2023-05-15T12:39:19;2.70;;;2.50;;
30299;SDS011;17110;52.602;12.998;2023-05-15T12:41:45;3.45;;;2.30;;
30299;SDS011;17110;52.602;12.998;2023-05-15T12:44:14;3.00;;;2.47;;
30299;SDS011;17110;52.602;12.998;2023-05-15T12:46:40;3.85;;;3.05;;
30299;SDS011;17110;52.602;12.998;2023-05-15T12:49:06;2.67;;;2.47;;
30299;SDS011;17110;52.602;12.998;2023-05-15T12:51:32;5.82;;;2.92;;
30299;SDS011;17110;52.602;12.998;2023-05-15T12:53:58;11.90;;;3.05;;
30299;SDS011;17110;52.602;12.998;2023-05-15T12:56:25;3.70;;;2.55;;
30299;SDS011;17110;52.602;12.998;2023-05-15T12:58:54;3.58;;;2.67;;
30299;SDS011;17110;52.602;12.998;2023-05-15T13:01:20;2.90;;;2.60;;
30299;SDS011;17110;52.602;12.998;2023-05-15T13:03:46;18.05;;;3.20;;
30299;SDS011;17110;52.602;12.998;2023-05-15T13:06:11;7.13;;;2.53;;
30299;SDS011;17110;52.602;12.998;2023-05-15T13:08:40;17.23;;;3.92;;
30299;SDS011;17110;52.602;12.998;2023-05-15T13:11:09;4.00;;;2.78;;
30299;SDS011;17110;52.602;12.998;2023-05-15T13:16:16;4.05;;;2.75;;
30299;SDS011;17110;52.602;12.998;2023-05-15T13:18:43;3.17;;;2.88;;
30299;SDS011;17110;52.602;12.998;2023-05-15T13:21:09;5.05;;;3.30;;
30299;SDS011;17110;52.602;12.998;2023-05-15T13:23:34;3.40;;;3.08;;
30299;SDS011;17110;52.602;12.998;2023-05-15T13:26:00;3.55;;;2.88;;
30299;SDS011;17110;52.602;12.998;2023-05-15T13:28:25;3.30;;;3.00;;
30299;SDS011;17110;52.602;12.998;2023-05-15T13:30:52;4.43;;;2.75;;
30299;SDS011;17110;52.602;12.998;2023-05-15T13:33:18;17.17;;;3.92;;
30299;SDS011;17110;52.602;12.998;2023-05-15T13:35:44;4.15;;;3.10;;
30299;SDS011;17110;52.602;12.998;2023-05-15T13:38:09;3.78;;;2.30;;
30299;SDS011;17110;52.602;12.998;2023-05-15T13:40:35;4.28;;;2.70;;
30299;SDS011;17110;52.602;12.998;2023-05-15T13:43:01;3.33;;;2.40;;
30299;SDS011;17110;52.602;12.998;2023-05-15T13:45:26;4.10;;;2.50;;
30299;SDS011;17110;52.602;12.998;2023-05-15T13:47:54;2.42;;;2.20;;
30299;SDS011;17110;52.602;12.998;2023-05-15T13:50:19;3.95;;;2.45;;
30299;SDS011;17110;52.602;12.998;2023-05-15T13:52:45;3.13;;;2.80;;
30299;SDS011;17110;52.602;12.998;2023-05-15T13:55:11;11.95;;;3.65;;
30299;SDS011;17110;52.602;12.998;2023-05-15T13:57:37;9.75;;;3.03;;
30299;SDS011;17110;52.602;12.998;2023-05-15T14:00:04;4.78;;;2.78;;
30299;SDS011;17110;52.602;12.998;2023-05-15T14:02:30;34.05;;;4.95;;
30299;SDS011;17110;52.602;12.998;2023-05-15T14:04:57;128.23;;;11.90;;
30299;SDS011;17110;52.602;12.998;2023-05-15T14:07:23;149.48;;;14.00;;
30299;SDS011;17110;52.602;12.998;2023-05-15T14:09:49;105.75;;;9.02;;
30299;SDS011;17110;52.602;12.998;2023-05-15T14:12:14;5.43;;;2.03;;
30299;SDS011;17110;52.602;12.998;2023-05-15T14:14:40;10.15;;;2.72;;
30299;SDS011;17110;52.602;12.998;2023-05-15T14:17:06;10.68;;;2.92;;
30299;SDS011;17110;52.602;12.998;2023-05-15T14:19:31;17.25;;;3.50;;
30299;SDS011;17110;52.602;12.998;2023-05-15T14:21:59;14.45;;;2.70;;
30299;SDS011;17110;52.602;12.998;2023-05-15T14:24:24;11.73;;;2.80;;
30299;SDS011;17110;52.602;12.998;2023-05-15T14:26:50;4.00;;;2.80;;
30299;SDS011;17110;52.602;12.998;2023-05-15T14:29:16;2.70;;;2.30;;